Time;durP1;ratioP1;P1;durP2;ratioP2;P2;SDS_P1;SDS_P2;PMS_P1;PMS_P2;Temp;Humidity;BMP_temperature;BMP_pressure;BME280_temperature;BME280_humidity;BME280_pressure;Samples;Min_cycle;Max_cycle;Signal;HPM_P1;HPM_P2
2023/09/17 00:00:59;;;;;;;10.07;4.75;;;23.00;99.90;;;;;;5094402;28;20027;-65
2023/09/17 00:03:25;;;;;;;5.93;4.03;;;22.90;99.90;;;;;;5092824;28;20103;-64
2023/09/17 00:05:51;;;;;;;5.40;4.00;;;22.90;99.90;;;;;;5092280;28;20401;-64
2023/09/17 00:08:18;;;;;;;5.40;4.07;;;22.90;99.90;;;;;;5084258;28;20056;-64
2023/09/17 00:10:45;;;;;;;5.78;3.88;;;22.90;99.90;;;;;;5074002;28;20031;-65
2023/09/17 00:13:12;;;;;;;6.55;4.22;;;22.90;99.90;;;;;;5088202;28;20077;-65
2023/09/17 00:15:38;;;;;;;7.97;3.80;;;22.80;99.90;;;;;;5092635;28;20033;-65
2023/09/17 00:18:04;;;;;;;5.68;3.80;;;22.70;99.90;;;;;;5093968;28;20032;-65
2023/09/17 00:20:29;;;;;;;4.95;3.70;;;22.60;99.90;;;;;;5093518;28;20043;-65
2023/09/17 00:22:55;;;;;;;4.05;3.65;;;22.50;99.90;;;;;;5093956;28;20489;-65
2023/09/17 00:25:21;;;;;;;5.43;3.63;;;22.40;99.90;;;;;;5091173;28;20041;-66
2023/09/17 00:27:46;;;;;;;5.45;3.65;;;22.40;99.90;;;;;;5093848;28;20028;-65
2023/09/17 00:30:13;;;;;;;5.32;3.65;;;22.30;99.90;;;;;;5094108;28;20482;-65
2023/09/17 00:32:40;;;;;;;5.32;3.83;;;22.20;99.90;;;;;;5093633;28;20028;-65
2023/09/17 00:35:06;;;;;;;7.13;3.78;;;22.10;99.90;;;;;;5093151;28;20039;-65
2023/09/17 00:37:31;;;;;;;5.93;3.53;;;22.10;99.90;;;;;;5093145;28;20047;-64
2023/09/17 00:39:57;;;;;;;5.32;3.35;;;22.00;99.90;;;;;;5093936;28;20020;-65
2023/09/17 00:42:23;;;;;;;5.65;3.85;;;21.90;99.90;;;;;;5086989;28;20028;-65
2023/09/17 00:44:49;;;;;;;6.68;3.58;;;21.90;99.90;;;;;;5093483;28;20024;-65
2023/09/17 00:47:15;;;;;;;6.25;4.15;;;21.80;99.90;;;;;;5092222;28;20035;-65
2023/09/17 00:49:41;;;;;;;4.25;3.50;;;21.80;99.90;;;;;;5093044;28;20081;-64
2023/09/17 00:52:20;;;;;;;5.30;3.92;;;21.70;99.90;;;;;;5093352;28;20085;-65
2023/09/17 00:54:48;;;;;;;6.32;4.00;;;21.70;99.90;;;;;;5093605;28;20024;-65
2023/09/17 00:57:17;;;;;;;7.10;3.58;;;21.60;99.90;;;;;;5092885;28;20043;-66
2023/09/17 00:59:47;;;;;;;8.32;4.07;;;21.60;99.90;;;;;;5079936;28;20029;-65
2023/09/17 01:02:17;;;;;;;7.95;4.25;;;21.60;99.90;;;;;;5079901;28;20032;-65
2023/09/17 01:04:49;;;;;;;5.13;4.13;;;21.70;99.90;;;;;;5092651;28;20028;-65
2023/09/17 01:07:21;;;;;;;7.78;4.00;;;21.80;99.90;;;;;;5091178;28;20458;-66
2023/09/17 01:09:48;;;;;;;8.98;4.60;;;22.00;99.90;;;;;;5093331;28;20498;-66
2023/09/17 01:12:14;;;;;;;5.95;4.20;;;22.00;99.90;;;;;;5092832;28;20133;-65
2023/09/17 01:14:39;;;;;;;6.72;4.20;;;22.10;99.90;;;;;;5092754;28;20024;-65
2023/09/17 01:17:09;;;;;;;5.57;4.50;;;22.20;99.90;;;;;;5084136;28;20579;-66
2023/09/17 01:19:36;;;;;;;7.43;4.32;;;22.20;99.90;;;;;;5092461;28;20024;-66
2023/09/17 01:22:08;;;;;;;6.10;4.07;;;22.20;99.90;;;;;;5092623;28;20118;-66
2023/09/17 01:24:37;;;;;;;6.45;3.80;;;22.20;99.90;;;;;;5092708;28;20061;-66
2023/09/17 01:27:04;;;;;;;6.57;4.13;;;22.20;99.90;;;;;;5091500;28;20039;-66
2023/09/17 01:29:37;;;;;;;5.70;3.92;;;22.20;99.90;;;;;;5092080;28;20024;-65
2023/09/17 01:32:04;;;;;;;6.00;3.83;;;22.20;99.90;;;;;;5092449;28;20111;-65
2023/09/17 01:34:31;;;;;;;5.30;4.03;;;22.10;99.90;;;;;;5090533;28;20032;-65
2023/09/17 01:36:59;;;;;;;7.95;4.10;;;22.10;99.90;;;;;;5078198;28;20044;-65
2023/09/17 01:39:28;;;;;;;9.52;4.45;;;22.10;99.90;;;;;;5075658;28;20103;-65
2023/09/17 01:41:55;;;;;;;5.70;4.07;;;22.00;99.90;;;;;;5091381;28;20028;-65
2023/09/17 01:44:24;;;;;;;6.22;3.92;;;21.90;99.90;;;;;;5091144;28;20158;-65
2023/09/17 01:46:50;;;;;;;6.03;3.83;;;21.80;99.90;;;;;;5092796;28;20021;-65
2023/09/17 01:49:17;;;;;;;6.25;4.13;;;21.70;99.90;;;;;;5091694;28;20052;-63
2023/09/17 01:51:44;;;;;;;7.07;4.30;;;21.60;99.90;;;;;;5091502;28;20028;-65
2023/09/17 01:54:10;;;;;;;5.13;4.30;;;21.50;99.90;;;;;;5091788;28;20031;-65
2023/09/17 01:56:39;;;;;;;6.53;4.50;;;21.40;99.90;;;;;;5092243;28;20031;-65
2023/09/17 01:59:04;;;;;;;5.20;3.95;;;21.40;99.90;;;;;;5091903;28;20030;-65
2023/09/17 02:01:30;;;;;;;9.20;4.68;;;21.40;99.90;;;;;;5089981;28;20031;-65
2023/09/17 02:03:57;;;;;;;5.68;4.50;;;21.40;99.90;;;;;;5076492;28;20028;-65
2023/09/17 02:06:23;;;;;;;7.75;4.72;;;21.30;99.90;;;;;;5090354;28;20040;-66
2023/09/17 02:08:49;;;;;;;8.50;4.70;;;21.20;99.90;;;;;;5091830;28;20534;-65
2023/09/17 02:11:14;;;;;;;6.10;4.47;;;21.20;99.90;;;;;;5090401;28;20035;-66
2023/09/17 02:13:40;;;;;;;6.18;4.70;;;21.30;99.90;;;;;;5091939;28;20061;-65
2023/09/17 02:16:07;;;;;;;6.93;4.72;;;21.20;99.90;;;;;;5091042;28;20509;-66
2023/09/17 02:18:33;;;;;;;8.10;4.85;;;21.20;99.90;;;;;;5091703;28;20093;-65
2023/09/17 02:20:58;;;;;;;6.70;4.80;;;21.20;99.90;;;;;;5091761;28;20020;-65
2023/09/17 02:23:25;;;;;;;7.10;4.72;;;21.10;99.90;;;;;;5089089;28;20540;-66
2023/09/17 02:25:51;;;;;;;9.40;5.32;;;21.20;99.90;;;;;;5091231;28;20036;-66
2023/09/17 02:28:17;;;;;;;10.63;5.13;;;21.20;99.90;;;;;;5091930;28;20169;-66
2023/09/17 02:30:42;;;;;;;10.77;5.00;;;21.30;99.90;;;;;;5091109;28;20109;-64
2023/09/17 02:33:10;;;;;;;7.95;4.93;;;21.40;99.90;;;;;;5091585;28;20032;-65
2023/09/17 02:35:37;;;;;;;6.85;5.00;;;21.50;99.90;;;;;;5091414;28;20024;-65
2023/09/17 02:38:04;;;;;;;7.82;4.70;;;21.60;99.90;;;;;;5091145;28;20046;-66
2023/09/17 02:40:29;;;;;;;8.23;5.00;;;21.60;99.90;;;;;;5088022;28;20008;-65
2023/09/17 02:42:55;;;;;;;10.10;5.25;;;21.60;99.90;;;;;;5081469;28;20081;-65
2023/09/17 02:45:21;;;;;;;8.75;5.50;;;21.70;99.90;;;;;;5090877;28;20023;-65
2023/09/17 02:47:46;;;;;;;7.65;4.70;;;21.70;99.90;;;;;;5091328;28;20106;-65
2023/09/17 02:50:12;;;;;;;9.45;5.63;;;21.70;99.90;;;;;;5090887;28;20579;-65
2023/09/17 02:52:38;;;;;;;9.65;5.20;;;21.70;99.90;;;;;;5091121;28;20044;-64
2023/09/17 02:55:05;;;;;;;7.90;5.20;;;21.60;99.90;;;;;;5091141;28;20115;-65
2023/09/17 02:57:31;;;;;;;8.45;5.65;;;21.60;99.90;;;;;;5087979;28;20040;-65
2023/09/17 02:59:57;;;;;;;9.75;5.45;;;21.50;99.90;;;;;;5082969;28;20518;-66
2023/09/17 03:02:22;;;;;;;9.48;5.30;;;21.50;99.90;;;;;;5090861;28;20036;-65
2023/09/17 03:04:52;;;;;;;9.35;5.65;;;21.40;99.90;;;;;;5091015;28;20027;-65
2023/09/17 03:07:18;;;;;;;8.50;5.65;;;21.30;99.90;;;;;;5091139;28;20127;-65
2023/09/17 03:09:45;;;;;;;10.23;5.95;;;21.10;99.90;;;;;;5090457;28;20574;-67
2023/09/17 03:12:11;;;;;;;9.70;5.68;;;21.10;99.90;;;;;;5088554;28;20032;-65
2023/09/17 03:14:36;;;;;;;8.27;5.60;;;21.10;99.90;;;;;;5090076;28;20024;-66
2023/09/17 03:17:05;;;;;;;10.52;6.05;;;21.00;99.90;;;;;;5090701;28;20036;-66
2023/09/17 03:19:30;;;;;;;9.05;5.85;;;21.00;99.90;;;;;;5094293;28;20024;-66
2023/09/17 03:21:56;;;;;;;9.48;6.20;;;20.90;99.90;;;;;;5094870;28;20604;-66
2023/09/17 03:24:22;;;;;;;10.75;5.97;;;20.80;99.90;;;;;;5095281;28;20020;-64
2023/09/17 03:26:47;;;;;;;9.77;6.55;;;20.80;99.90;;;;;;5094996;28;20116;-66
2023/09/17 03:29:13;;;;;;;8.10;5.82;;;20.80;99.90;;;;;;5094623;28;20362;-66
2023/09/17 03:31:41;;;;;;;11.05;6.50;;;20.80;99.90;;;;;;5094074;28;20035;-66
2023/09/17 03:34:06;;;;;;;10.40;6.70;;;20.80;99.90;;;;;;5095026;28;20020;-66
2023/09/17 03:36:35;;;;;;;12.07;6.78;;;20.70;99.90;;;;;;5094720;28;20028;-67
2023/09/17 03:39:01;;;;;;;8.75;6.30;;;20.70;99.90;;;;;;5094813;28;20398;-65
2023/09/17 03:41:26;;;;;;;12.52;6.97;;;20.70;99.90;;;;;;5094770;28;20028;-66
2023/09/17 03:43:52;;;;;;;10.75;6.70;;;20.60;99.90;;;;;;5094176;28;20038;-66
2023/09/17 03:46:18;;;;;;;13.50;7.20;;;20.60;99.90;;;;;;5093750;28;20532;-67
2023/09/17 03:48:46;;;;;;;10.88;6.80;;;20.60;99.90;;;;;;5094391;28;20502;-65
2023/09/17 03:51:12;;;;;;;10.90;6.65;;;20.80;99.90;;;;;;5093026;28;20501;-66
2023/09/17 03:53:38;;;;;;;10.65;6.80;;;20.90;99.90;;;;;;5094237;28;20059;-66
2023/09/17 03:56:04;;;;;;;9.95;6.57;;;20.90;99.90;;;;;;5094048;28;20052;-65
2023/09/17 03:58:30;;;;;;;10.20;7.07;;;21.00;99.90;;;;;;5094102;28;20040;-66
2023/09/17 04:00:56;;;;;;;11.52;6.68;;;21.10;99.90;;;;;;5093755;28;20024;-66
2023/09/17 04:03:21;;;;;;;12.73;7.10;;;21.10;99.90;;;;;;5094222;28;20026;-65
2023/09/17 04:05:49;;;;;;;13.00;7.40;;;21.10;99.90;;;;;;5094216;28;20040;-66
2023/09/17 04:08:15;;;;;;;10.43;6.88;;;21.10;99.90;;;;;;5093654;28;20052;-64
2023/09/17 04:10:41;;;;;;;12.63;7.07;;;21.20;99.90;;;;;;5092071;28;20100;-66
2023/09/17 04:13:09;;;;;;;10.57;6.82;;;21.20;99.90;;;;;;5093904;28;20035;-67
2023/09/17 04:15:36;;;;;;;14.90;7.72;;;21.20;99.90;;;;;;5094035;28;20489;-66
2023/09/17 04:18:04;;;;;;;12.10;7.15;;;21.10;99.90;;;;;;5093711;28;20044;-66
2023/09/17 04:20:30;;;;;;;12.63;7.40;;;21.20;99.90;;;;;;5093636;28;20102;-66
2023/09/17 04:22:55;;;;;;;14.07;7.20;;;21.10;99.90;;;;;;5094509;28;20081;-66
2023/09/17 04:25:21;;;;;;;11.75;7.72;;;21.00;99.90;;;;;;5092014;28;20032;-66
2023/09/17 04:27:47;;;;;;;12.43;8.13;;;20.90;99.90;;;;;;5072900;28;20024;-66
2023/09/17 04:30:14;;;;;;;12.98;7.90;;;20.80;99.90;;;;;;5089149;28;20461;-66
2023/09/17 04:32:42;;;;;;;12.50;8.00;;;20.70;99.90;;;;;;5094006;28;20032;-66
2023/09/17 04:35:10;;;;;;;12.60;8.50;;;20.60;99.90;;;;;;5093859;28;20444;-66
2023/09/17 04:37:37;;;;;;;16.15;8.50;;;20.60;99.90;;;;;;5093571;28;20048;-66
2023/09/17 04:40:12;;;;;;;13.10;8.75;;;20.60;99.90;;;;;;5093400;28;20024;-67
2023/09/17 04:42:40;;;;;;;13.48;8.82;;;20.50;99.90;;;;;;5093406;28;20040;-67
2023/09/17 04:45:06;;;;;;;15.32;9.43;;;20.50;99.90;;;;;;5093683;28;20021;-66
2023/09/17 04:47:34;;;;;;;15.20;8.85;;;20.40;99.90;;;;;;5092917;28;20082;-66
2023/09/17 04:50:00;;;;;;;16.17;9.25;;;20.40;99.90;;;;;;5093420;28;20028;-66
2023/09/17 04:52:26;;;;;;;14.80;9.23;;;20.40;99.90;;;;;;5077475;28;20032;-66
2023/09/17 04:54:51;;;;;;;12.75;8.90;;;20.40;99.90;;;;;;5073455;28;20073;-66
2023/09/17 04:57:17;;;;;;;11.85;8.77;;;20.40;99.90;;;;;;5072688;28;20112;-66
2023/09/17 04:59:43;;;;;;;15.77;9.10;;;20.40;99.90;;;;;;5072887;28;20036;-66
2023/09/17 05:02:08;;;;;;;14.85;9.15;;;20.40;99.90;;;;;;5074881;28;20036;-66
2023/09/17 05:04:34;;;;;;;14.95;9.40;;;20.40;99.90;;;;;;5073315;28;20100;-67
2023/09/17 05:07:00;;;;;;;16.05;9.48;;;20.40;99.90;;;;;;5092741;28;20052;-67
2023/09/17 05:09:26;;;;;;;16.13;9.93;;;20.40;99.90;;;;;;5092259;28;20528;-66
2023/09/17 05:11:52;;;;;;;15.77;9.13;;;20.50;99.90;;;;;;5092705;28;20043;-66
2023/09/17 05:14:17;;;;;;;14.27;9.60;;;20.60;99.90;;;;;;5092275;28;20031;-66
2023/09/17 05:16:43;;;;;;;14.02;8.90;;;20.70;99.90;;;;;;5092638;28;20040;-66
2023/09/17 05:19:09;;;;;;;13.55;8.40;;;20.90;99.90;;;;;;5092607;28;20110;-65
2023/09/17 05:21:34;;;;;;;14.10;9.07;;;20.90;99.90;;;;;;5092963;28;20031;-65
2023/09/17 05:24:00;;;;;;;13.98;8.65;;;21.00;99.90;;;;;;5090544;28;20458;-66
2023/09/17 05:26:26;;;;;;;12.15;8.40;;;20.90;99.90;;;;;;5092085;28;20444;-66
2023/09/17 05:28:52;;;;;;;12.93;8.57;;;21.00;99.90;;;;;;5092729;28;20557;-66
2023/09/17 05:31:17;;;;;;;14.13;8.43;;;20.90;99.90;;;;;;5082571;28;20615;-66
2023/09/17 05:33:43;;;;;;;16.15;8.75;;;21.00;99.90;;;;;;5086753;28;20031;-66
2023/09/17 05:36:09;;;;;;;15.10;9.07;;;21.00;99.90;;;;;;5091966;28;20074;-66
2023/09/17 05:38:35;;;;;;;15.95;9.30;;;21.00;99.90;;;;;;5092330;28;20111;-67
2023/09/17 05:41:01;;;;;;;13.77;8.82;;;21.00;99.90;;;;;;5091259;28;20024;-66
2023/09/17 05:43:26;;;;;;;18.50;9.38;;;20.90;99.90;;;;;;5092557;28;20401;-64
2023/09/17 05:45:56;;;;;;;14.30;9.32;;;20.90;99.90;;;;;;5091897;28;20040;-66
2023/09/17 05:48:25;;;;;;;15.95;9.10;;;20.80;99.90;;;;;;5091189;28;20394;-66
2023/09/17 05:50:52;;;;;;;16.42;9.40;;;20.70;99.90;;;;;;5088874;28;20081;-66
2023/09/17 05:53:19;;;;;;;14.48;9.57;;;20.70;99.90;;;;;;5071589;28;20115;-65
2023/09/17 05:55:44;;;;;;;16.02;9.38;;;20.60;99.90;;;;;;5081901;28;20115;-68
2023/09/17 05:58:10;;;;;;;18.08;10.43;;;20.60;99.90;;;;;;5088333;28;20174;-68
2023/09/17 06:00:36;;;;;;;15.30;10.02;;;20.50;99.90;;;;;;5091757;28;20035;-68
2023/09/17 06:03:02;;;;;;;14.75;9.25;;;20.40;99.90;;;;;;5091161;28;20028;-68
2023/09/17 06:05:27;;;;;;;13.52;9.65;;;20.50;99.90;;;;;;5091286;28;20024;-68
2023/09/17 06:07:54;;;;;;;14.35;9.40;;;20.40;99.90;;;;;;5091610;28;20135;-68
2023/09/17 06:10:21;;;;;;;13.73;9.98;;;20.40;99.90;;;;;;5091606;28;20039;-68
2023/09/17 06:12:46;;;;;;;18.00;10.07;;;20.40;99.90;;;;;;5091904;28;20031;-68
2023/09/17 06:15:12;;;;;;;15.70;9.63;;;20.40;99.90;;;;;;5091817;28;20028;-68
2023/09/17 06:17:38;;;;;;;15.05;9.32;;;20.40;99.90;;;;;;5090389;28;20032;-68
2023/09/17 06:20:04;;;;;;;14.38;9.38;;;20.40;99.90;;;;;;5091438;28;20071;-67
2023/09/17 06:22:30;;;;;;;15.65;9.43;;;20.40;99.90;;;;;;5091784;28;20035;-68
2023/09/17 06:24:56;;;;;;;12.70;9.32;;;20.40;99.90;;;;;;5090485;28;20547;-67
2023/09/17 06:27:21;;;;;;;16.33;9.55;;;20.50;99.90;;;;;;5091602;28;20032;-67
2023/09/17 06:29:47;;;;;;;16.25;9.60;;;20.60;99.90;;;;;;5091466;28;20561;-68
2023/09/17 06:32:13;;;;;;;13.75;9.32;;;20.80;99.90;;;;;;5091498;28;20111;-68
2023/09/17 06:34:41;;;;;;;16.58;9.73;;;21.00;99.90;;;;;;5091417;28;20032;-67
2023/09/17 06:37:07;;;;;;;20.92;9.40;;;21.20;99.90;;;;;;5090971;28;20027;-66
2023/09/17 06:39:32;;;;;;;16.33;9.43;;;21.50;99.90;;;;;;5089749;28;20123;-66
2023/09/17 06:41:58;;;;;;;15.50;8.93;;;21.70;99.90;;;;;;5091411;28;20028;-67
2023/09/17 06:44:24;;;;;;;13.93;8.55;;;21.80;99.90;;;;;;5091080;28;20024;-67
2023/09/17 06:46:50;;;;;;;15.70;8.88;;;21.90;99.90;;;;;;5091431;28;20008;-68
2023/09/17 06:49:16;;;;;;;15.35;8.60;;;21.90;99.90;;;;;;5089360;28;20024;-68
2023/09/17 06:51:41;;;;;;;14.93;8.60;;;21.90;99.90;;;;;;5089184;28;20096;-67
2023/09/17 06:54:07;;;;;;;16.85;9.38;;;21.90;99.90;;;;;;5088623;28;20573;-66
2023/09/17 06:56:33;;;;;;;14.75;8.65;;;22.00;99.90;;;;;;5088251;28;20552;-66
2023/09/17 06:58:59;;;;;;;14.70;8.52;;;22.10;99.90;;;;;;5090630;28;20031;-67
2023/09/17 07:01:24;;;;;;;13.98;8.68;;;22.10;99.90;;;;;;5089978;28;20028;-67
2023/09/17 07:03:52;;;;;;;15.57;8.88;;;22.10;99.90;;;;;;5090702;28;20524;-65
2023/09/17 07:06:18;;;;;;;15.00;8.75;;;22.10;99.90;;;;;;5089092;28;20042;-66
2023/09/17 07:08:44;;;;;;;15.48;8.80;;;22.10;99.90;;;;;;5090668;28;20542;-66
2023/09/17 07:11:09;;;;;;;14.05;8.18;;;22.10;99.90;;;;;;5091020;28;20024;-66
2023/09/17 07:13:38;;;;;;;14.23;8.43;;;22.10;99.90;;;;;;5086627;28;20028;-67
2023/09/17 07:16:05;;;;;;;16.27;8.82;;;22.00;99.90;;;;;;5091128;28;20025;-66
2023/09/17 07:18:31;;;;;;;12.68;8.63;;;21.80;99.90;;;;;;5088885;28;20028;-66
2023/09/17 07:20:57;;;;;;;13.50;8.82;;;21.70;99.90;;;;;;5090469;28;20086;-65
2023/09/17 07:23:23;;;;;;;17.25;9.27;;;21.70;99.90;;;;;;5089160;28;20614;-66
2023/09/17 07:25:50;;;;;;;14.32;8.23;;;21.70;99.90;;;;;;5080733;28;20021;-64
2023/09/17 07:28:16;;;;;;;13.52;8.57;;;21.70;99.90;;;;;;5086985;28;20017;-66
2023/09/17 07:30:42;;;;;;;13.68;8.27;;;21.80;99.90;;;;;;5090708;28;20115;-65
2023/09/17 07:33:08;;;;;;;19.25;8.20;;;21.90;99.90;;;;;;5090660;28;20119;-68
2023/09/17 07:35:37;;;;;;;16.90;8.77;;;22.00;99.90;;;;;;5082079;28;20032;-67
2023/09/17 07:38:03;;;;;;;15.35;8.18;;;21.90;99.90;;;;;;5089604;28;20626;-66
2023/09/17 07:40:29;;;;;;;15.40;8.70;;;21.80;99.90;;;;;;5090725;28;20107;-67
2023/09/17 07:42:55;;;;;;;13.20;8.70;;;21.80;99.90;;;;;;5091087;28;20023;-67
2023/09/17 07:45:20;;;;;;;15.40;9.13;;;21.80;99.90;;;;;;5077763;28;20028;-66
2023/09/17 07:47:46;;;;;;;14.15;8.35;;;21.70;99.90;;;;;;5090065;28;20617;-65
2023/09/17 07:50:12;;;;;;;17.02;9.07;;;21.80;99.90;;;;;;5088124;28;20456;-67
2023/09/17 07:52:40;;;;;;;13.82;8.70;;;21.90;99.90;;;;;;5087580;28;20024;-67
2023/09/17 07:55:06;;;;;;;17.48;8.55;;;21.90;99.90;;;;;;5082689;28;20037;-67
2023/09/17 07:57:31;;;;;;;16.65;9.15;;;21.80;99.90;;;;;;5076712;28;20394;-67
2023/09/17 07:59:57;;;;;;;17.33;9.38;;;21.80;99.90;;;;;;5070359;28;20032;-68
2023/09/17 08:02:23;;;;;;;14.18;9.20;;;21.80;99.90;;;;;;5089452;28;20061;-68
2023/09/17 08:04:48;;;;;;;15.13;8.60;;;21.90;99.90;;;;;;5092212;28;20091;-67
2023/09/17 08:07:16;;;;;;;19.27;9.20;;;22.00;99.90;;;;;;5094058;28;20043;-68
2023/09/17 08:09:42;;;;;;;17.05;8.63;;;22.10;99.90;;;;;;5094322;28;20047;-68
2023/09/17 08:12:08;;;;;;;14.15;7.57;;;22.10;99.90;;;;;;5092494;28;20497;-67
2023/09/17 08:14:34;;;;;;;15.55;8.40;;;22.20;99.90;;;;;;5093791;28;20044;-68
2023/09/17 08:17:01;;;;;;;13.63;8.82;;;22.30;99.90;;;;;;5073590;28;20072;-69
2023/09/17 08:19:26;;;;;;;14.27;8.57;;;22.30;99.90;;;;;;5082789;28;20474;-67
2023/09/17 08:21:52;;;;;;;15.25;8.23;;;22.40;99.90;;;;;;5092460;28;20108;-69
2023/09/17 08:24:20;;;;;;;13.55;9.00;;;22.40;99.90;;;;;;5094157;28;20522;-68
2023/09/17 08:26:47;;;;;;;13.10;8.63;;;22.40;99.90;;;;;;5093695;28;20039;-68
2023/09/17 08:29:13;;;;;;;13.02;8.23;;;22.50;99.90;;;;;;5093838;28;20039;-69
2023/09/17 08:31:38;;;;;;;14.98;8.70;;;22.50;99.90;;;;;;5091952;28;20036;-68
2023/09/17 08:34:04;;;;;;;12.90;7.75;;;22.70;99.90;;;;;;5093133;28;20022;-67
2023/09/17 08:36:31;;;;;;;16.42;8.38;;;22.70;99.90;;;;;;5083245;28;20123;-68
2023/09/17 08:38:56;;;;;;;13.18;8.07;;;22.70;99.90;;;;;;5090603;28;20036;-67
2023/09/17 08:41:25;;;;;;;14.98;8.10;;;22.60;99.90;;;;;;5093188;28;20031;-67
2023/09/17 08:43:54;;;;;;;12.20;7.43;;;22.60;99.90;;;;;;5075675;28;20059;-68
2023/09/17 08:46:21;;;;;;;13.68;8.05;;;22.60;99.90;;;;;;5090093;28;20433;-68
2023/09/17 08:48:47;;;;;;;15.40;8.32;;;22.60;99.90;;;;;;5092902;28;20059;-68
2023/09/17 08:51:17;;;;;;;12.82;7.80;;;22.60;99.90;;;;;;5086160;28;20059;-67
2023/09/17 08:54:04;;;;;;;12.50;7.28;;;22.70;99.90;;;;;;5091051;28;20053;-67
2023/09/17 08:56:33;;;;;;;15.65;7.70;;;22.80;99.90;;;;;;5090153;28;20028;-66
2023/09/17 08:59:08;;;;;;;11.32;7.10;;;22.90;99.90;;;;;;5092075;28;20073;-67
2023/09/17 09:01:37;;;;;;;15.95;7.70;;;22.90;99.90;;;;;;5090483;28;20025;-68
2023/09/17 09:04:05;;;;;;;11.30;8.00;;;23.00;99.90;;;;;;5086288;28;20035;-68
2023/09/17 09:06:33;;;;;;;14.48;8.43;;;23.00;99.90;;;;;;5092814;28;20572;-67
2023/09/17 09:09:01;;;;;;;13.02;8.60;;;23.00;99.90;;;;;;5080124;28;20036;-68
2023/09/17 09:11:27;;;;;;;12.43;7.30;;;23.10;99.90;;;;;;5072716;28;20063;-69
2023/09/17 09:13:55;;;;;;;12.60;7.07;;;23.20;99.90;;;;;;5072684;28;20024;-67
2023/09/17 09:16:21;;;;;;;10.55;7.00;;;23.20;99.90;;;;;;5073142;28;20382;-69
2023/09/17 09:18:48;;;;;;;12.88;7.32;;;23.30;99.90;;;;;;5072278;28;20483;-69
2023/09/17 09:21:14;;;;;;;12.80;7.68;;;23.30;99.90;;;;;;5072785;28;20429;-69
2023/09/17 09:23:40;;;;;;;11.88;6.70;;;23.40;99.90;;;;;;5072661;28;20040;-69
2023/09/17 09:26:06;;;;;;;13.68;6.80;;;23.60;99.90;;;;;;5072449;28;20108;-69
2023/09/17 09:28:32;;;;;;;11.43;6.93;;;23.70;99.90;;;;;;5072459;28;20021;-69
2023/09/17 09:30:58;;;;;;;11.38;6.80;;;23.90;99.90;;;;;;5072132;28;20384;-68
2023/09/17 09:33:24;;;;;;;11.55;7.07;;;23.90;99.90;;;;;;5072495;28;20070;-69
2023/09/17 09:35:50;;;;;;;10.35;6.60;;;24.00;99.90;;;;;;5073433;28;20035;-68
2023/09/17 09:38:18;;;;;;;12.55;7.05;;;24.10;99.90;;;;;;5091105;28;20040;-68
2023/09/17 09:40:44;;;;;;;12.00;6.55;;;24.10;99.90;;;;;;5092466;28;20103;-68
2023/09/17 09:43:31;;;;;;;11.93;6.95;;;24.40;99.90;;;;;;5081291;28;20123;-68
2023/09/17 09:46:04;;;;;;;12.82;6.70;;;24.50;99.90;;;;;;5083911;28;20478;-68
2023/09/17 09:48:40;;;;;;;11.00;6.83;;;24.50;99.90;;;;;;5092589;28;20028;-69
2023/09/17 09:51:06;;;;;;;12.00;6.65;;;24.50;99.90;;;;;;5091483;28;20277;-69
2023/09/17 09:53:32;;;;;;;11.52;6.78;;;24.50;99.90;;;;;;5090926;28;20036;-68
2023/09/17 09:55:58;;;;;;;11.98;6.53;;;24.50;99.90;;;;;;5090988;28;20035;-68
2023/09/17 09:58:24;;;;;;;9.10;6.10;;;24.40;99.90;;;;;;5078575;28;20146;-68
2023/09/17 10:00:50;;;;;;;13.55;6.70;;;24.40;99.90;;;;;;5082064;28;20031;-69
2023/09/17 10:03:19;;;;;;;12.40;6.68;;;24.40;99.90;;;;;;5090122;28;20020;-68
2023/09/17 10:05:45;;;;;;;11.88;6.05;;;24.30;99.90;;;;;;5091979;28;20028;-68
2023/09/17 10:08:12;;;;;;;9.95;6.50;;;24.30;99.90;;;;;;5090103;28;20051;-68
2023/09/17 10:10:39;;;;;;;10.98;6.50;;;24.20;99.90;;;;;;5091926;28;20028;-68
2023/09/17 10:13:11;;;;;;;12.93;7.13;;;24.10;99.90;;;;;;5091933;28;20012;-69
2023/09/17 10:15:41;;;;;;;12.20;6.47;;;24.10;99.90;;;;;;5090399;28;20111;-67
2023/09/17 10:18:10;;;;;;;10.93;7.18;;;24.00;99.90;;;;;;5091556;28;20115;-68
2023/09/17 10:20:37;;;;;;;9.82;6.15;;;24.00;99.90;;;;;;5083332;28;20402;-69
2023/09/17 10:23:05;;;;;;;9.65;6.60;;;24.00;99.90;;;;;;5071573;28;20547;-69
2023/09/17 10:25:31;;;;;;;10.88;6.70;;;24.00;99.90;;;;;;5071471;28;20036;-69
2023/09/17 10:27:58;;;;;;;12.23;6.80;;;24.00;99.90;;;;;;5070688;28;20021;-69
2023/09/17 10:30:24;;;;;;;12.25;6.63;;;24.00;99.90;;;;;;5075927;28;20024;-69
2023/09/17 10:32:51;;;;;;;13.00;6.60;;;24.10;99.90;;;;;;5071282;28;20363;-69
2023/09/17 10:35:17;;;;;;;11.35;7.03;;;24.10;99.90;;;;;;5071463;28;20025;-69
2023/09/17 10:37:46;;;;;;;11.52;6.40;;;24.20;99.90;;;;;;5081338;28;20391;-68
2023/09/17 10:40:13;;;;;;;11.07;7.18;;;24.30;99.90;;;;;;5091815;28;20060;-68
2023/09/17 10:42:39;;;;;;;12.25;6.65;;;24.40;99.90;;;;;;5091419;28;20052;-69
2023/09/17 10:45:10;;;;;;;10.35;6.40;;;24.50;99.90;;;;;;5091238;28;20020;-69
2023/09/17 10:47:38;;;;;;;12.40;6.80;;;24.60;99.90;;;;;;5091021;28;20028;-68
2023/09/17 10:50:04;;;;;;;12.25;6.60;;;24.70;99.90;;;;;;5088633;28;20032;-68
2023/09/17 10:52:31;;;;;;;12.70;6.20;;;24.80;99.90;;;;;;5086752;28;20477;-68
2023/09/17 10:54:57;;;;;;;10.45;6.53;;;25.00;99.90;;;;;;5090911;28;20020;-68
2023/09/17 10:57:46;;;;;;;10.70;6.38;;;25.10;99.90;;;;;;5090571;28;20036;-68
2023/09/17 11:00:20;;;;;;;11.40;6.03;;;25.30;99.90;;;;;;5085617;28;20099;-68
2023/09/17 11:02:55;;;;;;;11.30;6.20;;;25.30;99.90;;;;;;5088261;28;20567;-68
2023/09/17 11:05:26;;;;;;;11.60;6.80;;;25.30;99.90;;;;;;5086785;28;20065;-68
2023/09/17 11:07:54;;;;;;;10.70;6.07;;;25.40;99.90;;;;;;5090596;28;20036;-67
2023/09/17 11:10:20;;;;;;;12.18;6.00;;;25.50;99.90;;;;;;5086924;28;20410;-67
2023/09/17 11:12:47;;;;;;;10.75;6.05;;;25.50;99.90;;;;;;5090335;28;20030;-67
2023/09/17 11:15:13;;;;;;;11.90;6.35;;;25.60;99.90;;;;;;5090314;28;20024;-65
2023/09/17 11:17:40;;;;;;;13.10;6.05;;;25.60;99.90;;;;;;5090308;28;20028;-66
2023/09/17 11:20:14;;;;;;;12.73;6.38;;;25.70;99.90;;;;;;5088422;28;20066;-67
2023/09/17 11:22:41;;;;;;;9.05;5.65;;;25.70;99.90;;;;;;5082906;28;20035;-67
2023/09/17 11:25:10;;;;;;;8.50;5.72;;;25.80;99.90;;;;;;5085182;28;20025;-66
2023/09/17 11:27:49;;;;;;;11.55;6.15;;;25.80;99.90;;;;;;5083877;28;20055;-67
2023/09/17 11:30:16;;;;;;;11.02;6.25;;;25.90;99.90;;;;;;5090694;28;20031;-67
2023/09/17 11:32:51;;;;;;;9.95;5.95;;;25.90;99.90;;;;;;5083363;28;20429;-68
2023/09/17 11:35:23;;;;;;;15.20;6.25;;;25.90;99.90;;;;;;5074530;28;20486;-67
2023/09/17 11:37:50;;;;;;;11.55;6.10;;;25.90;99.90;;;;;;5078134;28;20506;-67
2023/09/17 11:40:18;;;;;;;11.95;5.90;;;25.90;99.90;;;;;;5080702;28;20447;-67
2023/09/17 11:42:45;;;;;;;8.88;5.88;;;25.80;99.90;;;;;;5082785;28;20025;-67
2023/09/17 11:45:11;;;;;;;10.93;5.35;;;25.80;99.90;;;;;;5082606;28;20028;-67
2023/09/17 11:47:38;;;;;;;11.63;5.97;;;25.70;99.90;;;;;;5083704;28;20016;-67
2023/09/17 11:50:07;;;;;;;9.98;5.45;;;25.70;99.90;;;;;;5082469;28;20021;-67
2023/09/17 11:52:33;;;;;;;10.02;5.53;;;25.60;99.90;;;;;;5087103;28;20496;-67
2023/09/17 11:55:07;;;;;;;9.15;5.10;;;25.60;99.90;;;;;;5089890;28;20023;-67
2023/09/17 11:57:34;;;;;;;14.43;5.10;;;25.50;99.90;;;;;;5081831;28;20036;-66
2023/09/17 12:00:00;;;;;;;11.68;5.13;;;25.40;99.90;;;;;;5074182;28;20074;-66
2023/09/17 12:02:27;;;;;;;8.90;5.35;;;25.30;99.90;;;;;;5083361;28;20034;-67
2023/09/17 12:04:54;;;;;;;11.30;5.38;;;25.20;99.90;;;;;;5094568;28;20098;-66
2023/09/17 12:07:20;;;;;;;12.50;6.25;;;25.10;99.90;;;;;;5092959;28;20052;-67
2023/09/17 12:10:04;;;;;;;11.27;5.53;;;25.00;99.90;;;;;;5094577;28;20145;-67
2023/09/17 12:12:33;;;;;;;12.45;5.40;;;24.90;99.90;;;;;;5092212;28;20032;-67
2023/09/17 12:14:59;;;;;;;8.25;5.18;;;24.80;99.90;;;;;;5092897;28;20032;-67
2023/09/17 12:17:24;;;;;;;10.98;5.30;;;24.80;99.90;;;;;;5092295;28;20081;-67
2023/09/17 12:19:59;;;;;;;11.48;5.30;;;24.80;99.90;;;;;;5089660;28;20044;-67
2023/09/17 12:22:25;;;;;;;11.00;5.38;;;24.90;99.90;;;;;;5093708;28;20024;-66
2023/09/17 12:25:03;;;;;;;12.40;5.57;;;24.80;99.90;;;;;;5093835;28;20538;-67
2023/09/17 12:29:58;;;;;;;13.05;5.82;;;24.80;99.90;;;;;;5094139;28;20035;-67
2023/09/17 12:32:25;;;;;;;9.75;5.55;;;24.80;99.90;;;;;;5093971;28;20416;-67
2023/09/17 12:34:53;;;;;;;9.75;5.53;;;24.70;99.90;;;;;;5093760;28;20066;-67
2023/09/17 12:37:20;;;;;;;11.48;5.80;;;24.70;99.90;;;;;;5074441;28;20036;-68
2023/09/17 12:39:46;;;;;;;8.75;5.30;;;24.60;99.90;;;;;;5085652;28;20517;-68
2023/09/17 12:42:13;;;;;;;11.35;5.70;;;24.50;99.90;;;;;;5093301;28;20016;-68